DAL1539 KSFO-KLAS
Flight info
| Callsign | DAL1539 |
|---|---|
| Flight time | N/A |
| Altitude | 37000 |
| Route | KSFO WESLA5 NTELL Q174 FLCHR COKTL4 KLAS |
| Aircraft | A321/M-V/N |
Departure
| Time | 2026-05-08 04:52 |
|---|---|
| Airport | San Francisco International Airport (KSFO) |
Arrival
| Time | N/A |
|---|---|
| Airport | Harry Reid International Airport (KLAS) |
| Time | Latitude | Longitude | Altitude | Speed | Heading |
|---|---|---|---|---|---|
| 2026-05-08 04:37 | 37.61516 | -122.38184 | 22 ft | 0 kts | 253° |
| 2026-05-08 04:41 | 37.61517 | -122.38178 | 24 ft | 4 kts | 253° |
| 2026-05-08 04:42 | 37.61525 | -122.38146 | 24 ft | 4 kts | 249° |
| 2026-05-08 04:42 | 37.61532 | -122.38113 | 24 ft | 4 kts | 267° |
| 2026-05-08 04:42 | 37.61529 | -122.38081 | 23 ft | 4 kts | 298° |
| 2026-05-08 04:42 | 37.61522 | -122.38067 | 22 ft | 1 kts | 307° |
| 2026-05-08 04:43 | 37.61521 | -122.38066 | 22 ft | 0 kts | 307° |
| 2026-05-08 04:45 | 37.61530 | -122.38069 | 22 ft | 4 kts | 344° |
| 2026-05-08 04:45 | 37.61563 | -122.38045 | 22 ft | 5 kts | 39° |
| 2026-05-08 04:45 | 37.61598 | -122.38010 | 24 ft | 9 kts | 36° |
| 2026-05-08 04:46 | 37.61672 | -122.37965 | 22 ft | 13 kts | 33° |
| 2026-05-08 04:46 | 37.61738 | -122.37898 | 23 ft | 12 kts | 46° |
| 2026-05-08 04:46 | 37.61790 | -122.37827 | 23 ft | 10 kts | 54° |
| 2026-05-08 04:46 | 37.61788 | -122.37737 | 22 ft | 13 kts | 111° |
| 2026-05-08 04:47 | 37.61747 | -122.37602 | 24 ft | 20 kts | 111° |
| 2026-05-08 04:47 | 37.61685 | -122.37431 | 23 ft | 21 kts | 118° |
| 2026-05-08 04:47 | 37.61618 | -122.37269 | 22 ft | 20 kts | 117° |
| 2026-05-08 04:47 | 37.61555 | -122.37117 | 22 ft | 19 kts | 117° |
| 2026-05-08 04:48 | 37.61492 | -122.36967 | 22 ft | 20 kts | 120° |
| 2026-05-08 04:48 | 37.61398 | -122.36830 | 22 ft | 21 kts | 131° |
| 2026-05-08 04:48 | 37.61323 | -122.36678 | 23 ft | 20 kts | 117° |
| 2026-05-08 04:48 | 37.61262 | -122.36528 | 24 ft | 19 kts | 117° |
| 2026-05-08 04:49 | 37.61202 | -122.36387 | 23 ft | 17 kts | 118° |
| 2026-05-08 04:49 | 37.61146 | -122.36258 | 23 ft | 16 kts | 119° |
| 2026-05-08 04:49 | 37.61136 | -122.36234 | 22 ft | 0 kts | 119° |
| 2026-05-08 04:50 | 37.61129 | -122.36219 | 24 ft | 4 kts | 119° |
| 2026-05-08 04:50 | 37.61107 | -122.36169 | 22 ft | 8 kts | 119° |
| 2026-05-08 04:51 | 37.61072 | -122.36090 | 24 ft | 12 kts | 118° |
| 2026-05-08 04:51 | 37.61048 | -122.35978 | 22 ft | 15 kts | 78° |
| 2026-05-08 04:51 | 37.61129 | -122.35883 | 23 ft | 18 kts | 26° |
| 2026-05-08 04:51 | 37.61226 | -122.35972 | 22 ft | 23 kts | 298° |
| 2026-05-08 04:52 | 37.61380 | -122.36340 | 24 ft | 81 kts | 297° |
| 2026-05-08 04:52 | 37.61736 | -122.37189 | 24 ft | 135 kts | 298° |
| 2026-05-08 04:52 | 37.62236 | -122.38340 | 316 ft | 150 kts | 298° |
| 2026-05-08 04:52 | 37.62777 | -122.39448 | 925 ft | 150 kts | 299° |
| 2026-05-08 04:53 | 37.63325 | -122.40597 | 1427 ft | 154 kts | 295° |
| 2026-05-08 04:53 | 37.63833 | -122.41811 | 1870 ft | 163 kts | 295° |
| 2026-05-08 04:53 | 37.64390 | -122.43157 | 2086 ft | 184 kts | 297° |
| 2026-05-08 04:53 | 37.65026 | -122.44665 | 2251 ft | 206 kts | 297° |
| 2026-05-08 04:54 | 37.65746 | -122.46351 | 2515 ft | 226 kts | 298° |
| 2026-05-08 04:54 | 37.66503 | -122.48111 | 3248 ft | 231 kts | 298° |
| 2026-05-08 04:54 | 37.66925 | -122.50128 | 3684 ft | 253 kts | 267° |
| 2026-05-08 04:54 | 37.66261 | -122.52234 | 4286 ft | 269 kts | 231° |
| 2026-05-08 04:55 | 37.64692 | -122.53527 | 5028 ft | 278 kts | 196° |
| 2026-05-08 04:55 | 37.62756 | -122.53588 | 5798 ft | 283 kts | 171° |
| 2026-05-08 04:55 | 37.60852 | -122.52920 | 6575 ft | 286 kts | 161° |
| 2026-05-08 04:55 | 37.58994 | -122.52000 | 7319 ft | 288 kts | 159° |
| 2026-05-08 04:56 | 37.57130 | -122.51035 | 8021 ft | 291 kts | 159° |
| 2026-05-08 04:56 | 37.55237 | -122.50104 | 8716 ft | 294 kts | 160° |
| 2026-05-08 04:56 | 37.53304 | -122.49226 | 9398 ft | 296 kts | 162° |
| 2026-05-08 04:56 | 37.51344 | -122.48389 | 10051 ft | 299 kts | 162° |
| 2026-05-08 04:57 | 37.49469 | -122.47232 | 10704 ft | 303 kts | 147° |
| 2026-05-08 04:57 | 37.47874 | -122.45474 | 11369 ft | 308 kts | 131° |
| 2026-05-08 04:57 | 37.46558 | -122.43284 | 11714 ft | 324 kts | 127° |
| 2026-05-08 04:57 | 37.45190 | -122.40915 | 11860 ft | 346 kts | 127° |
| 2026-05-08 04:58 | 37.43736 | -122.38385 | 12041 ft | 364 kts | 127° |
| 2026-05-08 04:58 | 37.42254 | -122.35757 | 12546 ft | 372 kts | 123° |
| 2026-05-08 04:58 | 37.41071 | -122.32844 | 13140 ft | 377 kts | 112° |
| 2026-05-08 04:58 | 37.40322 | -122.29667 | 13776 ft | 381 kts | 104° |
| 2026-05-08 04:59 | 37.39695 | -122.26420 | 14395 ft | 384 kts | 104° |
| 2026-05-08 04:59 | 37.39052 | -122.23150 | 15049 ft | 386 kts | 104° |
| 2026-05-08 04:59 | 37.38396 | -122.19862 | 15648 ft | 390 kts | 104° |
| 2026-05-08 04:59 | 37.37731 | -122.16549 | 16246 ft | 392 kts | 104° |
| 2026-05-08 05:00 | 37.37063 | -122.13213 | 16830 ft | 395 kts | 104° |
| 2026-05-08 05:00 | 37.36389 | -122.09850 | 17395 ft | 398 kts | 104° |
| 2026-05-08 05:00 | 37.35711 | -122.06464 | 17957 ft | 401 kts | 104° |
| 2026-05-08 05:00 | 37.35032 | -122.03059 | 18494 ft | 403 kts | 104° |
| 2026-05-08 05:01 | 37.34347 | -121.99628 | 18998 ft | 406 kts | 104° |
| 2026-05-08 05:01 | 37.33654 | -121.96175 | 19482 ft | 409 kts | 104° |
| 2026-05-08 05:01 | 37.32963 | -121.92742 | 19966 ft | 412 kts | 104° |
| 2026-05-08 05:01 | 37.32249 | -121.89200 | 20451 ft | 414 kts | 104° |
| 2026-05-08 05:02 | 37.31550 | -121.85731 | 20902 ft | 417 kts | 104° |
| 2026-05-08 05:02 | 37.30835 | -121.82186 | 21364 ft | 420 kts | 104° |
| 2026-05-08 05:02 | 37.30114 | -121.78619 | 21810 ft | 423 kts | 104° |
| 2026-05-08 05:02 | 37.29386 | -121.75035 | 22268 ft | 425 kts | 104° |
| 2026-05-08 05:03 | 37.28643 | -121.71383 | 22710 ft | 427 kts | 104° |
| 2026-05-08 05:03 | 37.27914 | -121.67808 | 23127 ft | 430 kts | 104° |
| 2026-05-08 05:03 | 37.27172 | -121.64161 | 23526 ft | 433 kts | 104° |
| 2026-05-08 05:03 | 37.26423 | -121.60490 | 23938 ft | 435 kts | 104° |
| 2026-05-08 05:04 | 37.25670 | -121.56798 | 24328 ft | 438 kts | 104° |
| 2026-05-08 05:04 | 37.24911 | -121.53083 | 24724 ft | 441 kts | 104° |
| 2026-05-08 05:04 | 37.24144 | -121.49342 | 25106 ft | 443 kts | 104° |
| 2026-05-08 05:04 | 37.23372 | -121.45592 | 25484 ft | 445 kts | 104° |
| 2026-05-08 05:05 | 37.22593 | -121.41820 | 25846 ft | 448 kts | 104° |
| 2026-05-08 05:05 | 37.21809 | -121.38031 | 26205 ft | 450 kts | 104° |
| 2026-05-08 05:05 | 37.21023 | -121.34226 | 26557 ft | 452 kts | 104° |
| 2026-05-08 05:05 | 37.20231 | -121.30399 | 26902 ft | 454 kts | 104° |
| 2026-05-08 05:06 | 37.19434 | -121.26558 | 27242 ft | 456 kts | 104° |
| 2026-05-08 05:06 | 37.18632 | -121.22704 | 27557 ft | 458 kts | 104° |
| 2026-05-08 05:06 | 37.17825 | -121.18830 | 27864 ft | 459 kts | 104° |
| 2026-05-08 05:06 | 37.17018 | -121.14953 | 28142 ft | 461 kts | 104° |
| 2026-05-08 05:07 | 37.16204 | -121.11047 | 28449 ft | 463 kts | 104° |
| 2026-05-08 05:07 | 37.15389 | -121.07139 | 28742 ft | 465 kts | 104° |
| 2026-05-08 05:07 | 37.14567 | -121.03206 | 29034 ft | 467 kts | 104° |
| 2026-05-08 05:07 | 37.13743 | -120.99262 | 29333 ft | 469 kts | 104° |
| 2026-05-08 05:08 | 37.12914 | -120.95308 | 29605 ft | 470 kts | 104° |
| 2026-05-08 05:08 | 37.12078 | -120.91346 | 29914 ft | 471 kts | 104° |
| 2026-05-08 05:08 | 37.11541 | -120.88813 | 30155 ft | 470 kts | 104° |